Owensboro-Daviess County Rgnl Information

FAA: OWB - ICAO: KOWB

Owensboro-Daviess County Rgnl (Airport) Location

State Kentucky
County Daviess
City Owensboro
Owensboro-Daviess County Rgnl (Airport) is 3 miles southwest of Owensboro, KY.
Latitude 37-44-19.8030N
Longitude 087-10-00.5828W
Elevation 407ft

Owensboro-Daviess County Rgnl METARs

METAR KOWB 301656Z VRB03KT 10SM CLR 12/04 A3012 RMK AO2 SLP201 T01220039
Altimeter 30.12"
Temperature 12.2°C (54.0°F)
Wind 0° at 3KT
Clouds Skies are clear.
Visibility 10.0mi
Time observed: 2021-11-30T16:56:00Z

Owensboro-Daviess County Rgnl (Airport) Details

Status Operational
Activation December 1949
Ownership Public
Usage Public
Chart ST LOUIS
ATC on-site Yes
Beacon schedule sunset-sunrise
Beacon color clear green

Owensboro-Daviess County Rgnl (Airport) Contacts

Owner OWENSBORO CITY & DAVIESS COUNTY
Owner address 2200 AIRPORT ROAD, OWENSBORO, KY 42303
Owner phone 270-685-4179
Manager DANNY HILL
Manager address 709 AIRPORT ROAD, MT. STERLING, KY 40353
Manager phone 859-498-1000

Owensboro-Daviess County Rgnl Radio Frequencies

Owensboro-Daviess County Rgnl (Airport) Radio Frequencies

UNICOM 122.95
Common traffic advisory frequency (CTAF) 120.7